createdAt,value
2022-09-11T00:00:17.429Z,11.4
2022-09-11T00:03:46.116Z,12.9
2022-09-11T00:06:34.341Z,14.1
2022-09-11T00:09:22.164Z,9.6
2022-09-11T00:12:09.720Z,11.5
2022-09-11T00:14:57.425Z,10.8
2022-09-11T00:17:45.101Z,12.8
2022-09-11T00:20:32.920Z,9.7
2022-09-11T00:23:22.661Z,10.8
2022-09-11T00:26:12.781Z,9.5
2022-09-11T00:29:00.563Z,18.2
2022-09-11T00:31:49.079Z,11.1
2022-09-11T00:34:37.462Z,9.8
2022-09-11T00:37:25.008Z,8.1
2022-09-11T00:40:12.700Z,10.4
2022-09-11T00:43:01.336Z,9.3
2022-09-11T00:45:49.194Z,9
2022-09-11T00:48:41.858Z,10.5
2022-09-11T00:51:34.463Z,11.6
2022-09-11T00:54:25.818Z,8.2
2022-09-11T00:57:17.831Z,9.8
2022-09-11T01:00:10.274Z,8.9
2022-09-11T01:02:59.156Z,10.1
2022-09-11T01:05:48.455Z,9.9
2022-09-11T01:08:38.466Z,9.1
2022-09-11T01:11:26.540Z,10.6
2022-09-11T01:14:33.690Z,9.8
2022-09-11T01:17:32.649Z,10.2
2022-09-11T01:20:28.664Z,12.4
2022-09-11T01:23:28.293Z,10.8
2022-09-11T01:26:33.957Z,11.8
2022-09-11T01:29:37.500Z,10.6
2022-09-11T01:32:29.991Z,12.6
2022-09-11T01:35:24.852Z,11.9
2022-09-11T01:38:22.152Z,11.8
2022-09-11T01:41:18.750Z,12.3
2022-09-11T01:44:12.473Z,11.2
2022-09-11T01:47:07.656Z,11.6
2022-09-11T01:49:57.726Z,13.4
2022-09-11T01:52:49.191Z,13.2
2022-09-11T01:55:42.974Z,13.7
2022-09-11T01:58:35.807Z,11.9
2022-09-11T02:01:26.075Z,18.1
2022-09-11T02:04:17.858Z,16
2022-09-11T02:07:11.996Z,14.8
2022-09-11T02:10:04.792Z,14.7
2022-09-11T02:12:59.126Z,12.8
2022-09-11T02:15:52.922Z,15
2022-09-11T02:18:45.385Z,15.5
2022-09-11T02:21:42.571Z,15.5
2022-09-11T02:24:32.483Z,14.1
2022-09-11T02:27:20.176Z,14.8
2022-09-11T02:30:10.471Z,14.8
2022-09-11T02:32:59.487Z,14.2
2022-09-11T02:35:47.432Z,17
2022-09-11T02:38:42.276Z,19.7
2022-09-11T02:41:42.473Z,14.6
2022-09-11T02:44:45.171Z,20
2022-09-11T02:47:42.211Z,17.8
2022-09-11T02:50:40.658Z,17.1
2022-09-11T02:53:35.767Z,21.9
2022-09-11T02:56:32.682Z,17.7
2022-09-11T02:59:27.160Z,21
2022-09-11T03:02:18.881Z,18.7
2022-09-11T03:05:10.096Z,18.9
2022-09-11T03:07:58.176Z,23.6
2022-09-11T03:10:49.124Z,25.8
2022-09-11T03:13:37.191Z,24.4
2022-09-11T03:16:24.826Z,19.9
2022-09-11T03:19:12.459Z,28.1
2022-09-11T03:22:00.488Z,26
2022-09-11T03:24:48.446Z,23.8
2022-09-11T03:27:36.634Z,24.7
2022-09-11T03:30:24.484Z,25.7
2022-09-11T03:33:12.091Z,29.2
2022-09-11T03:36:01.906Z,34.2
2022-09-11T03:38:50.203Z,30.5
2022-09-11T03:41:37.891Z,30.1
2022-09-11T03:44:25.453Z,33.9
2022-09-11T03:47:13.092Z,31.5
2022-09-11T03:50:00.728Z,36.9
2022-09-11T03:52:50.062Z,31.4
2022-09-11T03:55:37.801Z,33.6
2022-09-11T03:58:25.955Z,30.5
2022-09-11T04:01:13.527Z,31.1
2022-09-11T04:04:03.643Z,29.1
2022-09-11T04:06:51.512Z,27.4
2022-09-11T04:09:39.422Z,25.5
2022-09-11T04:12:27.146Z,25.4
2022-09-11T04:15:14.764Z,24.2
2022-09-11T04:18:05.591Z,25.8
2022-09-11T04:20:53.713Z,24.7
2022-09-11T04:23:41.816Z,20.9
2022-09-11T04:26:30.287Z,19.9
2022-09-11T04:29:18.867Z,20.3
2022-09-11T04:32:07.313Z,19.4
2022-09-11T04:34:56.305Z,18.3
2022-09-11T04:37:43.917Z,18.4
2022-09-11T04:40:31.472Z,19.6
2022-09-11T04:43:19.635Z,17.8
2022-09-11T04:46:07.160Z,17.9
2022-09-11T04:48:57.776Z,19.8
2022-09-11T04:51:45.227Z,19
2022-09-11T04:54:32.995Z,19.7
2022-09-11T04:57:21.587Z,19.7
2022-09-11T05:00:09.583Z,18.2
2022-09-11T05:02:58.723Z,19.4
2022-09-11T05:05:46.555Z,17.8
2022-09-11T05:08:34.315Z,21.1
2022-09-11T05:11:22.529Z,19.5
2022-09-11T05:14:10.631Z,17.6
2022-09-11T05:16:58.287Z,20.1
2022-09-11T05:19:46.067Z,19.2
2022-09-11T05:22:33.989Z,18.9
2022-09-11T05:25:21.747Z,17.6
2022-09-11T05:28:10.209Z,17.5
2022-09-11T05:30:57.696Z,18
2022-09-11T05:33:47.560Z,17.8
2022-09-11T05:36:36.977Z,15.5
2022-09-11T05:39:26.101Z,18.8
2022-09-11T05:42:13.729Z,17.1
2022-09-11T05:45:01.454Z,17.9
2022-09-11T05:47:53.163Z,14.7
2022-09-11T05:50:43.532Z,13.9
2022-09-11T05:53:38.030Z,15.1
2022-09-11T05:56:26.785Z,14.3
2022-09-11T05:59:14.862Z,13.6
2022-09-11T06:02:02.941Z,15.3
2022-09-11T06:04:50.830Z,14.9
2022-09-11T06:07:38.643Z,12.9
2022-09-11T06:10:26.780Z,14.6
2022-09-11T06:13:14.482Z,13.6
2022-09-11T06:16:02.625Z,14.4
2022-09-11T06:18:52.445Z,12.8
2022-09-11T06:21:40.232Z,13
2022-09-11T06:24:27.837Z,12.3
2022-09-11T06:27:15.473Z,11.4
2022-09-11T06:30:04.092Z,10
2022-09-11T06:32:53.377Z,10.3
2022-09-11T06:35:42.282Z,9.9
2022-09-11T06:38:30.681Z,10.6
2022-09-11T06:41:18.761Z,11.9
2022-09-11T06:44:06.972Z,12
2022-09-11T06:46:55.621Z,13.3
2022-09-11T06:49:43.992Z,10.3
2022-09-11T06:52:31.700Z,10.5
2022-09-11T06:55:19.889Z,9.6
2022-09-11T06:58:07.981Z,10.6
2022-09-11T07:00:55.577Z,10.1
2022-09-11T07:03:48.641Z,9.6
2022-09-11T07:06:38.692Z,11.2
2022-09-11T07:09:26.308Z,11.8
2022-09-11T07:12:14.217Z,11.1
2022-09-11T07:15:01.994Z,10.3
2022-09-11T07:17:50.524Z,9.7
2022-09-11T07:20:39.972Z,9.9
2022-09-11T07:23:27.756Z,9.6
2022-09-11T07:26:15.745Z,9.6
2022-09-11T07:29:04.261Z,8.4
2022-09-11T07:31:52.368Z,9.4
2022-09-11T07:34:42.497Z,9.3
2022-09-11T07:37:32.233Z,10.8
2022-09-11T07:40:19.825Z,8.7
2022-09-11T07:43:07.475Z,9.8
2022-09-11T07:45:55.286Z,9.3
2022-09-11T07:48:43.063Z,9.3
2022-09-11T07:51:32.093Z,9.5
2022-09-11T07:54:19.891Z,8.8
2022-09-11T07:57:07.930Z,8.5
2022-09-11T07:59:56.405Z,8.9
2022-09-11T08:02:44.929Z,11.5
2022-09-11T08:05:33.159Z,10.5
2022-09-11T08:08:21.090Z,8.4
2022-09-11T08:11:08.764Z,9.6
2022-09-11T08:13:59.162Z,8
2022-09-11T08:16:47.107Z,9.5
2022-09-11T08:19:35.453Z,9.6
2022-09-11T08:22:23.176Z,10.3
2022-09-11T08:25:10.785Z,8
2022-09-11T08:27:58.508Z,9.2
2022-09-11T08:30:46.693Z,9.2
2022-09-11T08:33:34.397Z,8.2
2022-09-11T08:36:22.812Z,9.4
2022-09-11T08:39:11.154Z,10.4
2022-09-11T08:41:58.977Z,8.9
2022-09-11T08:44:52.016Z,9.2
2022-09-11T08:47:43.736Z,9.2
2022-09-11T08:50:36.241Z,8.3
2022-09-11T08:53:26.457Z,6.3
2022-09-11T08:56:17.843Z,8.5
2022-09-11T08:59:08.456Z,8.5
2022-09-11T09:02:11.806Z,8.7
2022-09-11T09:05:16.113Z,6.5
2022-09-11T09:08:17.138Z,7
2022-09-11T09:11:19.862Z,6.4
2022-09-11T09:14:21.036Z,6.8
2022-09-11T09:17:27.456Z,5.8
2022-09-11T09:20:22.233Z,6.6
2022-09-11T09:23:15.405Z,5.3
2022-09-11T09:26:06.653Z,5
2022-09-11T09:29:02.221Z,8.5
2022-09-11T09:31:54.456Z,7.6
2022-09-11T09:34:47.344Z,8.6
2022-09-11T09:37:41.487Z,9.8
2022-09-11T09:40:30.419Z,7.4
2022-09-11T09:43:21.251Z,8.9
2022-09-11T09:46:24.937Z,7.7
2022-09-11T09:49:21.184Z,9.2
2022-09-11T09:52:14.892Z,8.8
2022-09-11T09:55:05.154Z,6.7
2022-09-11T09:58:00.538Z,7.4
2022-09-11T10:00:48.300Z,7.2
2022-09-11T10:03:36.947Z,8.5
2022-09-11T10:06:24.534Z,7.8
2022-09-11T10:09:12.998Z,6.5
2022-09-11T10:12:08.287Z,6.6
2022-09-11T10:15:04.522Z,6.9
2022-09-11T10:18:05.126Z,8.1
2022-09-11T10:21:17.325Z,7.8
2022-09-11T10:24:09.757Z,6.4
2022-09-11T10:27:08.103Z,7.7
2022-09-11T10:29:58.133Z,7
2022-09-11T10:32:46.307Z,6.8
2022-09-11T10:35:34.278Z,5.4
2022-09-11T10:38:22.397Z,5.9
2022-09-11T10:41:16.011Z,5.7
2022-09-11T10:44:06.369Z,7.4
2022-09-11T10:47:00.716Z,5.5
2022-09-11T10:49:51.033Z,5.8
2022-09-11T10:53:05.125Z,10.9
2022-09-11T10:56:05.377Z,7.2
2022-09-11T10:58:55.134Z,7.3
2022-09-11T11:01:50.205Z,9.3
2022-09-11T11:04:38.366Z,9
2022-09-11T11:07:25.993Z,7.3
2022-09-11T11:10:34.662Z,7.8
2022-09-11T11:13:35.677Z,8.2
2022-09-11T11:16:40.337Z,7.2
2022-09-11T11:19:42.579Z,7.8
2022-09-11T11:22:44.890Z,6.4
2022-09-11T11:25:50.732Z,7.6
2022-09-11T11:28:51.010Z,9.7
2022-09-11T11:32:10.397Z,9.2
2022-09-11T11:35:15.573Z,7.2
2022-09-11T11:38:08.098Z,8
2022-09-11T11:41:04.991Z,7.6
2022-09-11T11:44:03.717Z,6.7
2022-09-11T11:46:57.921Z,6.7
2022-09-11T11:49:51.725Z,6.5
2022-09-11T11:52:48.896Z,9.1
2022-09-11T11:55:45.665Z,6.8
2022-09-11T11:58:45.113Z,7
2022-09-11T12:01:38.738Z,9.4
2022-09-11T12:04:32.887Z,7.4
2022-09-11T12:07:28.440Z,6.7
2022-09-11T12:10:18.266Z,6
2022-09-11T12:13:12.790Z,7.4
2022-09-11T12:16:07.342Z,9.9
2022-09-11T12:19:05.213Z,8.7
2022-09-11T12:22:00.495Z,7.1
2022-09-11T12:24:55.997Z,10.4
2022-09-11T12:27:46.255Z,8.1
2022-09-11T12:30:54.385Z,8.6
2022-09-11T12:33:45.246Z,7.8
2022-09-11T12:36:39.163Z,6.9
2022-09-11T12:39:38.592Z,7.5
2022-09-11T12:42:37.777Z,7.8
2022-09-11T12:45:42.598Z,6.9
2022-09-11T12:48:32.880Z,10.2
2022-09-11T12:51:24.438Z,8
2022-09-11T12:54:16.477Z,8.2
2022-09-11T12:57:11.428Z,8.7
2022-09-11T13:00:05.625Z,7.5
2022-09-11T13:03:08.309Z,8
2022-09-11T13:06:04.071Z,7.9
2022-09-11T13:08:54.446Z,8.3
2022-09-11T13:11:46.521Z,8.5
2022-09-11T13:14:37.042Z,10.2
2022-09-11T13:17:32.836Z,8.5
2022-09-11T13:20:31.750Z,11.1
2022-09-11T13:23:19.248Z,8.7
2022-09-11T13:26:07.470Z,8.3
2022-09-11T13:29:04.927Z,7.4
2022-09-11T13:31:58.924Z,8.7
2022-09-11T13:34:55.987Z,8
2022-09-11T13:37:47.999Z,7.2
2022-09-11T13:40:42.466Z,7.5
2022-09-11T13:43:34.582Z,8.6
2022-09-11T13:46:28.871Z,6.7
2022-09-11T13:49:18.035Z,8.8
2022-09-11T13:52:17.401Z,8.8
2022-09-11T13:55:07.841Z,8.9
2022-09-11T13:58:03.776Z,10
2022-09-11T14:01:07.903Z,7.6
2022-09-11T14:03:56.915Z,7.3
2022-09-11T14:06:44.629Z,6.4
2022-09-11T14:09:32.491Z,9.9
2022-09-11T14:12:20.165Z,8.7
2022-09-11T14:15:09.288Z,7
2022-09-11T14:18:05.670Z,9.4
2022-09-11T14:21:04.993Z,7.3
2022-09-11T14:23:59.975Z,6.9
2022-09-11T14:27:11.343Z,7
2022-09-11T14:30:22.006Z,8
2022-09-11T14:33:14.712Z,7.6
2022-09-11T14:36:08.711Z,6.3
2022-09-11T14:39:04.852Z,6
2022-09-11T14:41:56.438Z,5.7
2022-09-11T14:44:44.701Z,4.4
2022-09-11T14:47:32.913Z,5
2022-09-11T14:50:21.265Z,5.6
2022-09-11T14:53:09.364Z,6
2022-09-11T14:56:03.481Z,6
2022-09-11T14:58:51.753Z,5.5
2022-09-11T15:01:39.802Z,6.2
2022-09-11T15:04:27.857Z,5.7
2022-09-11T15:07:15.858Z,5.8
2022-09-11T15:10:04.227Z,5.9
2022-09-11T15:12:55.158Z,5.4
2022-09-11T15:15:43.390Z,5.5
2022-09-11T15:18:31.229Z,5.7
2022-09-11T15:21:19.433Z,5.2
2022-09-11T15:24:07.071Z,7.5
2022-09-11T15:26:55.044Z,4.7
2022-09-11T15:29:42.936Z,7.1
2022-09-11T15:32:31.147Z,6.1
2022-09-11T15:35:18.988Z,5.1
2022-09-11T15:38:07.853Z,7.3
2022-09-11T15:40:55.504Z,7.1
2022-09-11T15:43:43.887Z,6.3
2022-09-11T15:46:31.698Z,6.9
2022-09-11T15:49:19.973Z,5.7
2022-09-11T15:52:09.555Z,6.4
2022-09-11T15:54:57.532Z,5.3
2022-09-11T15:57:45.190Z,5.7
2022-09-11T16:00:32.881Z,5.5
2022-09-11T16:03:20.993Z,8.1
2022-09-11T16:06:08.916Z,5.8
2022-09-11T16:08:56.593Z,5.9
2022-09-11T16:11:48.692Z,6.2
2022-09-11T16:14:39.231Z,6.2
2022-09-11T16:17:28.373Z,5.9
2022-09-11T16:20:17.390Z,4.7
2022-09-11T16:23:05.496Z,7.4
2022-09-11T16:25:54.081Z,5.9
2022-09-11T16:28:41.721Z,6.8
2022-09-11T16:31:32.056Z,7.4
2022-09-11T16:34:20.110Z,5.5
2022-09-11T16:37:07.904Z,8
2022-09-11T16:39:57.118Z,6.5
2022-09-11T16:42:46.610Z,9.5
2022-09-11T16:45:34.302Z,8
2022-09-11T16:48:24.374Z,6.4
2022-09-11T16:51:12.208Z,5.6
2022-09-11T16:54:03.641Z,5.9
2022-09-11T16:56:52.422Z,5.6
2022-09-11T16:59:40.232Z,6.5
2022-09-11T17:02:28.001Z,6.4
2022-09-11T17:05:15.624Z,5.7
2022-09-11T17:08:03.390Z,5.8
2022-09-11T17:10:53.576Z,6.4
2022-09-11T17:13:43.003Z,6.3
2022-09-11T17:16:31.309Z,5.3
2022-09-11T17:19:20.458Z,6.5
2022-09-11T17:22:08.162Z,6.9
2022-09-11T17:24:56.050Z,4.9
2022-09-11T17:27:43.742Z,6
2022-09-11T17:30:31.528Z,7.6
2022-09-11T17:33:24.233Z,5.6
2022-09-11T17:36:12.565Z,9.5
2022-09-11T17:39:02.889Z,7
2022-09-11T17:41:50.715Z,6.8
2022-09-11T17:44:38.476Z,5.7
2022-09-11T17:47:26.988Z,6.4
2022-09-11T17:50:16.409Z,7.6
2022-09-11T17:53:04.691Z,6.5
2022-09-11T17:55:52.425Z,12.4
2022-09-11T17:58:46.109Z,6.9
2022-09-11T18:01:36.811Z,8.5
2022-09-11T18:04:26.745Z,6.8
2022-09-11T18:07:14.654Z,8.2
2022-09-11T18:10:03.672Z,7.3
2022-09-11T18:12:53.820Z,6.3
2022-09-11T18:15:41.499Z,6.2
2022-09-11T18:18:29.179Z,6.8
2022-09-11T18:21:18.041Z,10.3
2022-09-11T18:24:05.655Z,8.5
2022-09-11T18:26:58.631Z,10.5
2022-09-11T18:29:50.364Z,6.9
2022-09-11T18:32:40.001Z,7.2
2022-09-11T18:35:27.885Z,8.1
2022-09-11T18:38:15.720Z,6.5
2022-09-11T18:41:04.480Z,6.4
2022-09-11T18:43:52.190Z,6.1
2022-09-11T18:46:41.578Z,5.8
2022-09-11T18:49:30.457Z,5.8
2022-09-11T18:52:19.834Z,5.7
2022-09-11T18:55:10.527Z,9.6
2022-09-11T18:58:00.152Z,10
2022-09-11T19:00:48.032Z,9.5
2022-09-11T19:03:38.924Z,10.5
2022-09-11T19:06:28.151Z,5.7
2022-09-11T19:09:16.720Z,7.7
2022-09-11T19:12:04.548Z,9.6
2022-09-11T19:14:52.945Z,10.1
2022-09-11T19:17:40.650Z,10.3
2022-09-11T19:20:28.545Z,8.6
2022-09-11T19:23:16.176Z,7.6
2022-09-11T19:26:03.718Z,7.5
2022-09-11T19:28:56.253Z,9.1
2022-09-11T19:31:44.527Z,6.9
2022-09-11T19:34:35.030Z,9.1
2022-09-11T19:37:26.724Z,6.1
2022-09-11T19:40:14.382Z,6.5
2022-09-11T19:43:03.712Z,7.9
2022-09-11T19:45:51.773Z,8
2022-09-11T19:48:47.286Z,7.6
2022-09-11T19:51:36.512Z,7.1
2022-09-11T19:54:25.988Z,7.3
2022-09-11T19:57:15.437Z,8.4
2022-09-11T20:00:03.698Z,9.5
2022-09-11T20:02:53.938Z,6.6
2022-09-11T20:05:41.569Z,11.8
2022-09-11T20:08:29.747Z,8.2
2022-09-11T20:11:18.283Z,7.9
2022-09-11T20:14:09.989Z,6.7
2022-09-11T20:16:57.727Z,9.6
2022-09-11T20:19:45.694Z,10.7
2022-09-11T20:22:33.247Z,8.2
2022-09-11T20:25:20.767Z,6.9
2022-09-11T20:28:08.442Z,9.2
2022-09-11T20:31:00.375Z,8.1
2022-09-11T20:33:55.863Z,7.4
2022-09-11T20:36:44.494Z,7.7
2022-09-11T20:39:32.579Z,7.6
2022-09-11T20:42:20.735Z,8.3
2022-09-11T20:45:08.388Z,8.5
2022-09-11T20:47:56.752Z,9.3
2022-09-11T20:50:44.301Z,9.2
2022-09-11T20:53:31.950Z,8.9
2022-09-11T20:56:19.960Z,7.5
2022-09-11T20:59:09.741Z,10.6
2022-09-11T21:01:57.566Z,8.2
2022-09-11T21:04:45.493Z,9.1
2022-09-11T21:07:33.717Z,10.2
2022-09-11T21:10:21.496Z,11.3
2022-09-11T21:13:09.219Z,7.6
2022-09-11T21:15:57.072Z,8.4
2022-09-11T21:18:44.727Z,7.5
2022-09-11T21:21:34.369Z,9.9
2022-09-11T21:24:22.776Z,10.1
2022-09-11T21:27:10.637Z,7.7
2022-09-11T21:29:58.352Z,8.4
2022-09-11T21:32:46.033Z,9.2
2022-09-11T21:35:33.612Z,9.2
2022-09-11T21:38:21.836Z,8.2
2022-09-11T21:41:13.146Z,8.3
2022-09-11T21:44:01.007Z,7.3
2022-09-11T21:46:49.308Z,7.8
2022-09-11T21:49:37.763Z,8.7
2022-09-11T21:52:25.431Z,6.4
2022-09-11T21:55:14.923Z,7.5
2022-09-11T21:58:03.397Z,6.6
2022-09-11T22:00:51.797Z,9.4
2022-09-11T22:03:39.453Z,6.9
2022-09-11T22:06:27.298Z,7.8
2022-09-11T22:09:16.098Z,6.4
2022-09-11T22:12:05.405Z,7.9
2022-09-11T22:14:53.138Z,7.3
2022-09-11T22:17:41.003Z,11
2022-09-11T22:20:28.706Z,7.1
2022-09-11T22:23:16.305Z,6.9
2022-09-11T22:26:06.529Z,6.9
2022-09-11T22:28:57.361Z,8.5
2022-09-11T22:31:46.199Z,7.2
2022-09-11T22:34:34.192Z,5.8
2022-09-11T22:37:22.506Z,6.6
2022-09-11T22:40:10.528Z,8.2
2022-09-11T22:42:58.205Z,6.7
2022-09-11T22:45:45.932Z,7.2
2022-09-11T22:48:37.441Z,8.5
2022-09-11T22:51:24.993Z,8.8
2022-09-11T22:54:12.661Z,7.7
2022-09-11T22:57:00.730Z,8.9
2022-09-11T22:59:48.373Z,6
2022-09-11T23:02:36.756Z,7.7
2022-09-11T23:05:24.705Z,10.1
2022-09-11T23:08:44.320Z,9.5
2022-09-11T23:11:32.779Z,9.7
2022-09-11T23:14:20.362Z,7
2022-09-11T23:17:08.217Z,9.4
2022-09-11T23:19:56.118Z,8.1
2022-09-11T23:22:43.704Z,10.7
2022-09-11T23:25:32.020Z,6.9
2022-09-11T23:28:19.820Z,10.5
2022-09-11T23:31:07.394Z,7.5
2022-09-11T23:33:56.873Z,8.6
2022-09-11T23:36:46.652Z,7.4
2022-09-11T23:39:34.165Z,6.7
2022-09-11T23:42:21.773Z,7.5
2022-09-11T23:45:09.373Z,6.9
2022-09-11T23:47:57.598Z,8.4
2022-09-11T23:50:45.193Z,8.3
2022-09-11T23:53:32.813Z,11.3
2022-09-11T23:56:23.097Z,8.2
2022-09-11T23:59:11.115Z,10.7
